createdAt,value
2023-02-27T00:02:01.104Z,8.52
2023-02-27T00:04:28.252Z,7.65
2023-02-27T00:06:54.949Z,10.65
2023-02-27T00:09:21.707Z,8.27
2023-02-27T00:11:48.252Z,10.10
2023-02-27T00:14:14.810Z,8.05
2023-02-27T00:16:41.359Z,12.52
2023-02-27T00:19:08.008Z,8.88
2023-02-27T00:21:36.701Z,9.73
2023-02-27T00:24:06.314Z,9.23
2023-02-27T00:26:32.906Z,11.35
2023-02-27T00:28:59.534Z,10.50
2023-02-27T00:31:26.528Z,8.05
2023-02-27T00:33:53.267Z,9.00
2023-02-27T00:36:19.819Z,12.70
2023-02-27T00:38:46.492Z,11.38
2023-02-27T00:41:15.103Z,11.40
2023-02-27T00:43:41.686Z,14.18
2023-02-27T00:46:08.358Z,9.93
2023-02-27T00:48:34.954Z,12.17
2023-02-27T00:51:01.834Z,10.52
2023-02-27T00:53:28.537Z,11.65
2023-02-27T00:55:55.073Z,9.38
2023-02-27T00:58:21.624Z,11.30
2023-02-27T01:00:48.420Z,9.53
2023-02-27T01:03:15.106Z,12.73
2023-02-27T01:05:41.805Z,9.93
2023-02-27T01:08:08.535Z,9.93
2023-02-27T01:10:35.098Z,11.90
2023-02-27T01:13:01.711Z,14.30
2023-02-27T01:15:28.441Z,12.88
2023-02-27T01:17:55.055Z,10.77
2023-02-27T01:20:24.563Z,11.40
2023-02-27T01:22:51.172Z,10.23
2023-02-27T01:25:18.031Z,9.13
2023-02-27T01:27:44.631Z,10.98
2023-02-27T01:30:12.229Z,13.60
2023-02-27T01:32:38.874Z,13.90
2023-02-27T01:35:06.211Z,11.25
2023-02-27T01:37:32.788Z,12.80
2023-02-27T01:39:59.519Z,10.40
2023-02-27T01:42:28.366Z,9.52
2023-02-27T01:45:03.919Z,10.75
2023-02-27T01:47:30.793Z,10.45
2023-02-27T01:49:57.409Z,10.83
2023-02-27T01:52:24.134Z,9.30
2023-02-27T01:54:50.745Z,11.20
2023-02-27T01:57:17.580Z,8.27
2023-02-27T01:59:44.231Z,10.48
2023-02-27T02:02:27.132Z,9.53
2023-02-27T02:04:57.910Z,11.77
2023-02-27T02:07:24.590Z,9.65
2023-02-27T02:10:00.609Z,8.00
2023-02-27T02:12:31.466Z,9.73
2023-02-27T02:14:58.096Z,10.77
2023-02-27T02:17:36.238Z,8.63
2023-02-27T02:20:28.458Z,7.38
2023-02-27T02:23:33.827Z,8.63
2023-02-27T02:26:48.069Z,8.48
2023-02-27T02:29:56.666Z,9.67
2023-02-27T02:32:44.452Z,8.10
2023-02-27T02:35:35.668Z,8.32
2023-02-27T02:38:33.412Z,8.90
2023-02-27T02:41:08.302Z,10.05
2023-02-27T02:44:07.771Z,7.83
2023-02-27T02:46:55.180Z,8.95
2023-02-27T02:49:42.286Z,8.13
2023-02-27T02:52:26.191Z,7.45
2023-02-27T02:55:08.016Z,10.63
2023-02-27T02:57:44.121Z,8.47
2023-02-27T03:00:22.432Z,8.40
2023-02-27T03:02:55.680Z,8.00
2023-02-27T03:05:30.375Z,9.52
2023-02-27T03:08:06.014Z,7.43
2023-02-27T03:10:38.637Z,15.43
2023-02-27T03:13:11.661Z,9.00
2023-02-27T03:15:48.149Z,9.48
2023-02-27T03:18:25.550Z,8.43
2023-02-27T03:20:57.619Z,8.43
2023-02-27T03:23:32.108Z,8.53
2023-02-27T03:26:00.028Z,8.18
2023-02-27T03:28:32.429Z,7.93
2023-02-27T03:31:19.580Z,9.77
2023-02-27T03:33:51.946Z,8.20
2023-02-27T03:36:46.241Z,11.17
2023-02-27T03:39:27.229Z,7.68
2023-02-27T03:41:56.833Z,9.85
2023-02-27T03:44:52.510Z,8.25
2023-02-27T03:47:19.982Z,8.30
2023-02-27T03:49:47.044Z,8.43
2023-02-27T03:52:16.499Z,8.60
2023-02-27T03:54:53.099Z,10.93
2023-02-27T03:57:19.867Z,10.25
2023-02-27T03:59:49.870Z,8.27
2023-02-27T04:02:16.665Z,7.70
2023-02-27T04:04:43.236Z,8.27
2023-02-27T04:07:22.856Z,8.57
2023-02-27T04:10:29.809Z,8.95
2023-02-27T04:13:09.521Z,13.38
2023-02-27T04:16:09.638Z,8.07
2023-02-27T04:19:09.045Z,10.13
2023-02-27T04:21:49.796Z,8.30
2023-02-27T04:24:49.744Z,8.85
2023-02-27T04:27:45.480Z,9.00
2023-02-27T04:30:41.849Z,10.57
2023-02-27T04:33:20.829Z,8.55
2023-02-27T04:35:51.075Z,9.15
2023-02-27T04:38:27.825Z,9.43
2023-02-27T04:41:13.352Z,7.65
2023-02-27T04:43:43.050Z,8.43
2023-02-27T04:46:14.049Z,8.90
2023-02-27T04:49:04.132Z,8.30
2023-02-27T04:51:40.136Z,7.93
2023-02-27T04:54:13.219Z,10.30
2023-02-27T04:57:00.290Z,9.23
2023-02-27T04:59:37.903Z,9.82
2023-02-27T05:02:18.104Z,8.40
2023-02-27T05:04:46.945Z,10.43
2023-02-27T05:07:18.929Z,8.77
2023-02-27T05:09:54.605Z,8.37
2023-02-27T05:12:26.394Z,9.32
2023-02-27T05:15:03.243Z,9.27
2023-02-27T05:17:58.029Z,8.88
2023-02-27T05:20:29.783Z,8.75
2023-02-27T05:23:02.325Z,9.47
2023-02-27T05:25:50.319Z,9.93
2023-02-27T05:28:24.397Z,12.07
2023-02-27T05:31:02.086Z,7.65
2023-02-27T05:33:51.717Z,8.10
2023-02-27T05:36:27.000Z,9.00
2023-02-27T05:38:58.812Z,8.52
2023-02-27T05:41:48.747Z,10.88
2023-02-27T05:44:26.031Z,9.65
2023-02-27T05:46:59.548Z,10.30
2023-02-27T05:49:47.847Z,10.97
2023-02-27T05:52:18.921Z,10.55
2023-02-27T05:55:01.099Z,7.53
2023-02-27T05:57:44.709Z,7.45
2023-02-27T06:00:15.140Z,10.80
2023-02-27T06:02:43.720Z,8.87
2023-02-27T06:05:10.668Z,9.13
2023-02-27T06:07:38.098Z,8.45
2023-02-27T06:10:06.530Z,10.98
2023-02-27T06:12:33.890Z,8.57
2023-02-27T06:15:00.619Z,9.20
2023-02-27T06:17:27.213Z,7.32
2023-02-27T06:19:53.772Z,7.80
2023-02-27T06:22:20.448Z,9.43
2023-02-27T06:24:47.056Z,11.13
2023-02-27T06:27:13.612Z,8.23
2023-02-27T06:29:40.375Z,7.78
2023-02-27T06:32:07.013Z,10.38
2023-02-27T06:34:33.905Z,8.88
2023-02-27T06:37:02.598Z,6.85
2023-02-27T06:39:30.591Z,9.37
2023-02-27T06:41:57.501Z,7.40
2023-02-27T06:44:25.381Z,8.18
2023-02-27T06:46:55.903Z,7.72
2023-02-27T06:49:24.081Z,7.78
2023-02-27T06:51:51.803Z,8.33
2023-02-27T06:54:18.894Z,9.02
2023-02-27T06:56:45.488Z,8.68
2023-02-27T06:59:19.109Z,8.18
2023-02-27T07:01:45.842Z,10.05
2023-02-27T07:04:21.972Z,8.33
2023-02-27T07:07:33.977Z,10.82
2023-02-27T07:09:48.255Z,8.55
2023-02-27T07:15:42.643Z,7.45
2023-02-27T07:18:27.283Z,8.10
2023-02-27T07:24:08.082Z,7.38
2023-02-27T07:26:34.910Z,7.25
2023-02-27T07:29:11.601Z,8.05
2023-02-27T07:32:03.154Z,7.13
2023-02-27T07:34:56.457Z,6.50
2023-02-27T07:37:25.178Z,9.35
2023-02-27T07:40:07.988Z,6.72
2023-02-27T07:42:41.702Z,6.00
2023-02-27T07:45:29.510Z,7.47
2023-02-27T07:47:59.895Z,7.93
2023-02-27T07:50:34.198Z,11.18
2023-02-27T07:53:08.928Z,10.27
2023-02-27T07:55:37.185Z,12.15
2023-02-27T07:58:04.094Z,9.90
2023-02-27T08:00:33.071Z,7.95
2023-02-27T08:03:03.605Z,6.68
2023-02-27T08:08:22.763Z,7.65
2023-02-27T08:10:53.688Z,7.80
2023-02-27T08:13:42.197Z,8.90
2023-02-27T08:19:07.977Z,8.15
2023-02-27T08:21:34.524Z,7.78
2023-02-27T08:24:01.182Z,6.77
2023-02-27T08:26:28.091Z,5.82
2023-02-27T08:28:55.277Z,6.72
2023-02-27T08:31:27.061Z,6.18
2023-02-27T08:34:09.436Z,8.23
2023-02-27T08:36:50.004Z,14.87
2023-02-27T08:39:18.759Z,6.38
2023-02-27T08:42:12.100Z,6.00
2023-02-27T08:44:42.547Z,7.97
2023-02-27T08:47:09.447Z,10.98
2023-02-27T08:49:36.076Z,7.13
2023-02-27T08:52:02.992Z,6.50
2023-02-27T08:54:30.151Z,7.63
2023-02-27T08:56:56.808Z,9.00
2023-02-27T08:59:26.296Z,8.57
2023-02-27T09:01:53.156Z,7.73
2023-02-27T09:04:19.830Z,6.90
2023-02-27T09:06:46.802Z,7.95
2023-02-27T09:09:13.780Z,6.10
2023-02-27T09:11:40.508Z,7.75
2023-02-27T09:14:07.845Z,7.77
2023-02-27T09:16:34.825Z,7.15
2023-02-27T09:19:01.592Z,7.88
2023-02-27T09:21:28.269Z,7.63
2023-02-27T09:23:55.050Z,5.88
2023-02-27T09:26:28.770Z,7.27
2023-02-27T09:29:02.401Z,7.38
2023-02-27T09:31:32.127Z,6.40
2023-02-27T09:33:59.647Z,5.93
2023-02-27T09:36:26.497Z,6.90
2023-02-27T09:38:53.340Z,7.60
2023-02-27T09:41:37.451Z,8.95
2023-02-27T09:44:44.887Z,8.45
2023-02-27T09:47:23.405Z,9.35
2023-02-27T09:49:59.322Z,6.72
2023-02-27T09:52:27.956Z,7.57
2023-02-27T09:54:54.891Z,7.97
2023-02-27T09:57:34.018Z,6.50
2023-02-27T10:00:07.597Z,6.32
2023-02-27T10:02:53.213Z,6.20
2023-02-27T10:09:00.719Z,6.78
2023-02-27T10:12:08.704Z,6.80
2023-02-27T10:15:19.391Z,8.02
2023-02-27T10:18:16.876Z,6.63
2023-02-27T10:21:03.150Z,10.83
2023-02-27T10:24:07.822Z,6.28
2023-02-27T10:26:41.886Z,6.10
2023-02-27T10:29:40.149Z,9.27
2023-02-27T10:32:28.279Z,6.55
2023-02-27T10:35:28.811Z,8.30
2023-02-27T10:38:02.152Z,8.68
2023-02-27T10:40:35.131Z,8.30
2023-02-27T10:43:05.280Z,11.13
2023-02-27T10:45:38.767Z,6.55
2023-02-27T10:48:06.578Z,6.30
2023-02-27T10:50:36.637Z,6.80
2023-02-27T10:53:09.979Z,7.82
2023-02-27T10:55:42.203Z,5.93
2023-02-27T10:58:19.602Z,10.65
2023-02-27T11:00:55.694Z,6.93
2023-02-27T11:03:28.801Z,6.38
2023-02-27T11:05:59.679Z,5.97
2023-02-27T11:08:32.299Z,7.63
2023-02-27T11:11:05.021Z,7.03
2023-02-27T11:14:01.308Z,8.53
2023-02-27T11:16:30.282Z,13.32
2023-02-27T11:18:58.916Z,6.60
2023-02-27T11:21:30.149Z,5.75
2023-02-27T11:24:09.434Z,7.28
2023-02-27T11:26:53.067Z,6.67
2023-02-27T11:29:20.482Z,10.88
2023-02-27T11:32:15.047Z,7.10
2023-02-27T11:34:52.466Z,6.93
2023-02-27T11:37:36.534Z,7.57
2023-02-27T11:40:09.200Z,5.83
2023-02-27T11:42:41.740Z,8.70
2023-02-27T11:46:04.305Z,7.30
2023-02-27T11:48:24.627Z,9.40
2023-02-27T11:51:30.646Z,6.88
2023-02-27T11:54:03.307Z,10.63
2023-02-27T11:56:44.104Z,7.63
2023-02-27T11:59:10.620Z,8.40
2023-02-27T12:01:56.894Z,7.30
2023-02-27T12:04:26.564Z,6.68
2023-02-27T12:07:03.524Z,8.43
2023-02-27T12:09:42.220Z,7.20
2023-02-27T12:12:28.367Z,6.75
2023-02-27T12:15:10.280Z,8.77
2023-02-27T12:17:47.577Z,6.35
2023-02-27T12:20:35.040Z,8.23
2023-02-27T12:23:06.295Z,9.73
2023-02-27T12:25:53.993Z,8.13
2023-02-27T12:28:34.770Z,8.52
2023-02-27T12:31:13.027Z,8.43
2023-02-27T12:34:00.484Z,10.00
2023-02-27T12:36:32.438Z,7.50
2023-02-27T12:38:59.118Z,5.88
2023-02-27T12:41:28.813Z,8.13
2023-02-27T12:44:35.059Z,8.65
2023-02-27T12:47:10.811Z,8.10
2023-02-27T12:49:56.897Z,7.78
2023-02-27T12:52:54.031Z,8.40
2023-02-27T12:55:26.589Z,7.93
2023-02-27T12:58:30.611Z,9.07
2023-02-27T13:01:01.573Z,9.37
2023-02-27T13:04:12.286Z,6.53
2023-02-27T13:07:04.082Z,6.95
2023-02-27T13:09:41.169Z,6.43
2023-02-27T13:12:25.470Z,8.15
2023-02-27T13:15:07.724Z,7.50
2023-02-27T13:17:55.192Z,7.38
2023-02-27T13:20:21.725Z,7.00
2023-02-27T13:22:58.983Z,8.43
2023-02-27T13:25:29.519Z,8.07
2023-02-27T13:28:06.841Z,8.23
2023-02-27T13:30:43.081Z,8.48
2023-02-27T13:33:37.121Z,9.25
2023-02-27T13:36:13.911Z,6.95
2023-02-27T13:38:48.097Z,7.32
2023-02-27T13:41:23.152Z,6.63
2023-02-27T13:44:03.477Z,9.20
2023-02-27T13:46:34.304Z,7.47
2023-02-27T13:49:07.915Z,8.82
2023-02-27T13:51:46.225Z,8.27
2023-02-27T13:54:16.951Z,17.43
2023-02-27T13:57:06.917Z,13.07
2023-02-27T13:59:40.683Z,8.90
2023-02-27T14:02:14.887Z,8.40
2023-02-27T14:04:53.416Z,9.43
2023-02-27T14:07:33.475Z,9.50
2023-02-27T14:10:04.502Z,8.98
2023-02-27T14:12:46.462Z,7.68
2023-02-27T14:15:30.267Z,8.68
2023-02-27T14:18:13.898Z,9.52
2023-02-27T14:20:47.463Z,7.00
2023-02-27T14:23:17.118Z,7.35
2023-02-27T14:26:05.152Z,8.40
2023-02-27T14:28:50.767Z,9.65
2023-02-27T14:31:38.276Z,8.02
2023-02-27T14:34:05.983Z,7.00
2023-02-27T14:36:40.085Z,8.20
2023-02-27T14:39:12.755Z,8.45
2023-02-27T14:42:18.435Z,15.88
2023-02-27T14:44:47.313Z,9.52
2023-02-27T14:47:18.975Z,8.03
2023-02-27T14:49:47.396Z,9.75
2023-02-27T14:52:25.535Z,9.43
2023-02-27T14:54:53.020Z,10.57
2023-02-27T14:57:25.186Z,10.18
2023-02-27T14:59:54.959Z,8.97
2023-02-27T15:02:32.632Z,13.80
2023-02-27T15:05:02.245Z,18.08
2023-02-27T15:07:32.150Z,11.32
2023-02-27T15:10:05.221Z,9.75
2023-02-27T15:12:38.724Z,7.73
2023-02-27T15:15:07.416Z,8.25
2023-02-27T15:17:42.297Z,8.88
2023-02-27T15:20:31.109Z,8.13
2023-02-27T15:22:59.567Z,9.20
2023-02-27T15:25:33.700Z,8.07
2023-02-27T15:28:06.847Z,8.50
2023-02-27T15:30:33.599Z,8.50
2023-02-27T15:33:03.999Z,8.63
2023-02-27T15:35:39.936Z,9.80
2023-02-27T15:38:06.539Z,9.13
2023-02-27T15:40:37.073Z,8.50
2023-02-27T15:43:04.000Z,12.38
2023-02-27T15:45:36.220Z,8.20
2023-02-27T15:48:03.979Z,8.60
2023-02-27T15:50:39.074Z,7.80
2023-02-27T15:53:12.797Z,8.05
2023-02-27T15:55:50.011Z,9.65
2023-02-27T15:58:22.699Z,11.50
2023-02-27T16:00:52.473Z,8.05
2023-02-27T16:03:23.705Z,7.90
2023-02-27T16:05:52.728Z,8.10
2023-02-27T16:08:23.784Z,10.38
2023-02-27T16:11:00.531Z,8.57
2023-02-27T16:13:56.676Z,8.50
2023-02-27T16:16:38.388Z,7.93
2023-02-27T16:19:28.970Z,9.23
2023-02-27T16:22:11.391Z,10.77
2023-02-27T16:24:41.134Z,9.93
2023-02-27T16:27:20.034Z,11.00
2023-02-27T16:29:57.979Z,9.73
2023-02-27T16:32:31.025Z,17.13
2023-02-27T16:35:01.985Z,13.40
2023-02-27T16:37:36.359Z,12.73
2023-02-27T16:40:15.389Z,9.95
2023-02-27T16:42:43.003Z,11.50
2023-02-27T16:45:21.022Z,9.07
2023-02-27T16:47:56.464Z,10.95
2023-02-27T16:50:35.001Z,12.23
2023-02-27T16:53:01.547Z,20.70
2023-02-27T16:55:33.370Z,20.87
2023-02-27T16:58:00.284Z,20.95
2023-02-27T17:00:26.920Z,20.38
2023-02-27T17:02:56.389Z,23.80
2023-02-27T17:05:26.260Z,14.52
2023-02-27T17:07:52.854Z,12.40
2023-02-27T17:10:24.045Z,11.52
2023-02-27T17:12:51.023Z,16.40
2023-02-27T17:15:18.526Z,16.50
2023-02-27T17:17:48.398Z,12.82
2023-02-27T17:20:15.081Z,12.43
2023-02-27T17:22:45.904Z,12.52
2023-02-27T17:25:15.928Z,17.45
2023-02-27T17:27:43.822Z,37.25
2023-02-27T17:30:12.433Z,20.30
2023-02-27T17:32:39.058Z,11.57
2023-02-27T17:35:10.623Z,13.60
2023-02-27T17:37:38.205Z,13.27
2023-02-27T17:40:06.341Z,10.25
2023-02-27T17:42:37.556Z,12.18
2023-02-27T17:45:05.164Z,11.43
2023-02-27T17:47:32.548Z,11.63
2023-02-27T17:50:03.321Z,15.52
2023-02-27T17:52:32.602Z,12.32
2023-02-27T17:54:59.342Z,14.43
2023-02-27T17:57:26.101Z,18.57
2023-02-27T17:59:52.794Z,20.20
2023-02-27T18:02:22.161Z,18.52
2023-02-27T18:04:48.884Z,15.80
2023-02-27T18:07:15.519Z,12.27
2023-02-27T18:09:45.187Z,11.27
2023-02-27T18:12:11.953Z,19.20
2023-02-27T18:14:38.600Z,13.45
2023-02-27T18:17:05.229Z,12.77
2023-02-27T18:19:32.629Z,13.98
2023-02-27T18:21:59.763Z,12.60
2023-02-27T18:24:29.387Z,11.60
2023-02-27T18:26:58.233Z,11.70
2023-02-27T18:29:24.881Z,10.75
2023-02-27T18:31:54.778Z,13.25
2023-02-27T18:34:22.870Z,15.60
2023-02-27T18:36:58.406Z,14.25
2023-02-27T18:39:25.002Z,13.20
2023-02-27T18:41:51.754Z,15.43
2023-02-27T18:44:18.558Z,10.38
2023-02-27T18:46:45.338Z,12.27
2023-02-27T18:49:14.567Z,17.23
2023-02-27T18:51:41.360Z,21.30
2023-02-27T18:54:08.445Z,29.95
2023-02-27T18:56:35.115Z,13.18
2023-02-27T18:59:01.780Z,11.73
2023-02-27T19:01:30.304Z,11.70
2023-02-27T19:03:57.368Z,11.27
2023-02-27T19:06:24.291Z,11.52
2023-02-27T19:08:51.001Z,11.70
2023-02-27T19:11:27.855Z,15.17
2023-02-27T19:13:54.371Z,11.07
2023-02-27T19:16:21.095Z,12.02
2023-02-27T19:18:47.859Z,10.90
2023-02-27T19:21:27.632Z,11.65
2023-02-27T19:23:54.699Z,12.03
2023-02-27T19:26:21.672Z,12.63
2023-02-27T19:29:01.009Z,10.15
2023-02-27T19:31:27.575Z,12.90
2023-02-27T19:33:54.488Z,14.25
2023-02-27T19:36:25.553Z,11.67
2023-02-27T19:38:52.694Z,11.95
2023-02-27T19:41:25.595Z,13.52
2023-02-27T19:43:52.644Z,9.10
2023-02-27T19:46:24.493Z,12.50
2023-02-27T19:48:57.225Z,10.03
2023-02-27T19:51:24.453Z,13.73
2023-02-27T19:56:34.624Z,16.85
2023-02-27T19:59:01.358Z,11.55
2023-02-27T20:01:31.218Z,12.73
2023-02-27T20:04:02.093Z,13.82
2023-02-27T20:06:31.313Z,12.00
2023-02-27T20:08:58.864Z,11.93
2023-02-27T20:11:31.690Z,12.57
2023-02-27T20:13:58.549Z,11.33
2023-02-27T20:16:26.812Z,10.98
2023-02-27T20:18:54.140Z,11.88
2023-02-27T20:21:23.669Z,14.30
2023-02-27T20:23:51.481Z,11.93
2023-02-27T20:26:36.488Z,14.13
2023-02-27T20:29:13.849Z,13.65
2023-02-27T20:31:42.555Z,15.02
2023-02-27T20:34:09.980Z,17.15
2023-02-27T20:36:43.205Z,13.48
2023-02-27T20:39:12.325Z,13.87
2023-02-27T20:41:39.390Z,18.42
2023-02-27T20:44:07.533Z,16.27
2023-02-27T20:46:35.232Z,18.52
2023-02-27T20:49:04.360Z,17.95
2023-02-27T20:51:36.945Z,14.60
2023-02-27T20:54:06.864Z,14.07
2023-02-27T20:56:39.070Z,21.80
2023-02-27T20:59:11.760Z,16.83
2023-02-27T21:01:43.064Z,17.52
2023-02-27T21:04:09.756Z,18.20
2023-02-27T21:06:36.410Z,17.08
2023-02-27T21:09:06.331Z,14.40
2023-02-27T21:11:34.155Z,12.60
2023-02-27T21:14:09.001Z,15.10
2023-02-27T21:16:36.000Z,13.67
2023-02-27T21:19:02.579Z,13.98
2023-02-27T21:21:31.935Z,13.45
2023-02-27T21:24:09.671Z,12.95
2023-02-27T21:26:38.695Z,14.57
2023-02-27T21:29:19.399Z,14.33
2023-02-27T21:31:48.160Z,13.25
2023-02-27T21:34:18.183Z,12.55
2023-02-27T21:36:45.599Z,11.30
2023-02-27T21:39:15.878Z,13.68
2023-02-27T21:41:43.121Z,14.50
2023-02-27T21:44:12.798Z,14.07
2023-02-27T21:46:39.624Z,13.95
2023-02-27T21:49:06.568Z,16.75
2023-02-27T21:51:40.436Z,14.15
2023-02-27T21:54:09.403Z,13.10
2023-02-27T21:56:36.169Z,13.93
2023-02-27T21:59:03.103Z,14.43
2023-02-27T22:01:30.906Z,13.18
2023-02-27T22:03:58.020Z,13.93
2023-02-27T22:06:26.977Z,14.90
2023-02-27T22:08:55.566Z,14.15
2023-02-27T22:11:26.609Z,14.35
2023-02-27T22:13:56.506Z,16.27
2023-02-27T22:16:23.805Z,16.20
2023-02-27T22:18:50.463Z,11.33
2023-02-27T22:21:23.887Z,13.48
2023-02-27T22:23:50.923Z,10.43
2023-02-27T22:26:20.565Z,13.57
2023-02-27T22:28:47.952Z,10.95
2023-02-27T22:31:20.043Z,12.37
2023-02-27T22:33:49.279Z,11.52
2023-02-27T22:36:19.609Z,12.35
2023-02-27T22:38:49.658Z,10.73
2023-02-27T22:41:28.977Z,12.27
2023-02-27T22:43:57.738Z,12.50
2023-02-27T22:46:30.726Z,12.48
2023-02-27T22:49:00.266Z,14.40
2023-02-27T22:51:28.199Z,14.90
2023-02-27T22:53:57.078Z,13.55
2023-02-27T22:56:27.089Z,13.87
2023-02-27T22:58:54.170Z,13.27
2023-02-27T23:01:26.976Z,10.77
2023-02-27T23:03:57.213Z,12.77
2023-02-27T23:06:26.871Z,12.95
2023-02-27T23:08:56.993Z,11.33
2023-02-27T23:11:24.016Z,14.27
2023-02-27T23:13:51.432Z,12.50
2023-02-27T23:16:19.169Z,13.07
2023-02-27T23:18:49.306Z,12.63
2023-02-27T23:21:18.074Z,12.27
2023-02-27T23:23:44.982Z,13.27
2023-02-27T23:26:12.561Z,10.75
2023-02-27T23:28:39.531Z,15.07
2023-02-27T23:31:09.836Z,12.75
2023-02-27T23:33:36.909Z,13.43
2023-02-27T23:36:06.924Z,13.75
2023-02-27T23:38:33.773Z,14.30
2023-02-27T23:41:06.623Z,12.77
2023-02-27T23:43:34.029Z,13.07
2023-02-27T23:46:06.584Z,13.17
2023-02-27T23:48:34.152Z,12.90
2023-02-27T23:51:03.059Z,13.55
2023-02-27T23:53:30.435Z,12.60
2023-02-27T23:56:02.961Z,12.55
2023-02-27T23:58:29.998Z,13.83
